Time;durP1;ratioP1;P1;durP2;ratioP2;P2;SDS_P1;SDS_P2;PMS_P1;PMS_P2;Temp;Humidity;BMP_temperature;BMP_pressure;BME280_temperature;BME280_humidity;BME280_pressure;Samples;Min_cycle;Max_cycle;Signal;HPM_P1;HPM_P2
2023/05/12 00:00:13;;;;;;;;;;;;;;;13.60;70.93;101839.34;7358739;19;19964;-65
2023/05/12 00:02:39;;;;;;;;;;;;;;;13.58;70.67;101840.25;7359150;19;19930;-65
2023/05/12 00:05:04;;;;;;;;;;;;;;;13.56;70.92;101845.53;7358838;19;19923;-65
2023/05/12 00:07:29;;;;;;;;;;;;;;;13.53;70.89;101842.94;7356999;19;20631;-63
2023/05/12 00:09:55;;;;;;;;;;;;;;;13.50;70.94;101843.03;7357708;19;19959;-65
2023/05/12 00:12:20;;;;;;;;;;;;;;;13.48;71.05;101850.03;7359511;19;19918;-65
2023/05/12 00:14:45;;;;;;;;;;;;;;;13.45;70.78;101847.47;7359210;19;19923;-65
2023/05/12 00:17:12;;;;;;;;;;;;;;;13.43;70.92;101851.88;7359948;19;20431;-65
2023/05/12 00:19:40;;;;;;;;;;;;;;;13.40;70.99;101851.94;7359416;19;19926;-65
2023/05/12 00:22:05;;;;;;;;;;;;;;;13.38;70.79;101853.69;7355466;19;19926;-65
2023/05/12 00:24:31;;;;;;;;;;;;;;;13.34;70.78;101846.78;7357126;19;20519;-65
2023/05/12 00:26:56;;;;;;;;;;;;;;;13.32;71.00;101853.78;7354693;19;19944;-64
2023/05/12 00:29:21;;;;;;;;;;;;;;;13.29;70.89;101861.75;7356388;19;19943;-65
2023/05/12 00:31:46;;;;;;;;;;;;;;;13.23;70.88;101860.94;7360533;19;19959;-65
2023/05/12 00:34:11;;;;;;;;;;;;;;;13.22;70.59;101863.56;7358467;19;19936;-65
2023/05/12 00:36:37;;;;;;;;;;;;;;;13.19;70.71;101872.31;7357317;19;19923;-65
2023/05/12 00:39:03;;;;;;;;;;;;;;;13.15;71.01;101868.00;7357654;19;20014;-65
2023/05/12 00:41:28;;;;;;;;;;;;;;;13.13;70.58;101869.81;7359886;19;19921;-65
2023/05/12 00:43:54;;;;;;;;;;;;;;;13.11;70.56;101868.94;7356418;19;20421;-65
2023/05/12 00:46:19;;;;;;;;;;;;;;;13.09;70.97;101872.50;7359945;19;19943;-65
2023/05/12 00:48:45;;;;;;;;;;;;;;;13.06;71.23;101877.75;7353795;19;19978;-65
2023/05/12 00:51:11;;;;;;;;;;;;;;;13.04;70.84;101869.94;7358988;19;19934;-65
2023/05/12 00:53:36;;;;;;;;;;;;;;;13.01;71.35;101877.81;7356618;19;20446;-65
2023/05/12 00:56:02;;;;;;;;;;;;;;;12.99;71.01;101879.63;7355716;19;19998;-65
2023/05/12 00:58:27;;;;;;;;;;;;;;;12.97;71.10;101878.75;7357394;19;19925;-65
2023/05/12 01:00:52;;;;;;;;;;;;;;;12.94;71.26;101878.81;7357005;19;19919;-65
2023/05/12 01:03:18;;;;;;;;;;;;;;;12.92;71.54;101880.56;7358807;19;19934;-63
2023/05/12 01:06:03;;;;;;;;;;;;;;;12.90;71.33;101877.13;7353265;19;19915;-65
2023/05/12 01:08:28;;;;;;;;;;;;;;;12.87;71.28;101888.50;7357497;19;19918;-65
2023/05/12 01:10:53;;;;;;;;;;;;;;;12.85;71.60;101884.16;7358751;19;19954;-64
2023/05/12 01:13:19;;;;;;;;;;;;;;;12.83;71.13;101885.97;7352584;19;19917;-64
2023/05/12 01:15:45;;;;;;;;;;;;;;;12.81;71.39;101885.09;7354689;19;19911;-65
2023/05/12 01:18:11;;;;;;;;;;;;;;;12.79;71.58;101886.88;7354805;19;20467;-65
2023/05/12 01:20:37;;;;;;;;;;;;;;;12.75;71.43;101887.81;7342727;19;19914;-64
2023/05/12 01:23:03;;;;;;;;;;;;;;;12.74;71.27;101886.94;7354625;19;20626;-64
2023/05/12 01:25:30;;;;;;;;;;;;;;;12.71;71.52;101887.81;7350557;19;19911;-64
2023/05/12 01:27:56;;;;;;;;;;;;;;;12.69;71.64;101894.84;7353345;19;19915;-63
2023/05/12 01:30:22;;;;;;;;;;;;;;;12.67;71.65;101894.00;7356522;19;20717;-63
2023/05/12 01:32:47;;;;;;;;;;;;;;;12.64;71.48;101891.41;7358836;19;20014;-64
2023/05/12 01:35:13;;;;;;;;;;;;;;;12.62;71.43;101893.22;7349393;19;19995;-63
2023/05/12 01:37:38;;;;;;;;;;;;;;;12.59;71.39;101898.47;7357793;19;19926;-63
2023/05/12 01:40:03;;;;;;;;;;;;;;;12.57;71.34;101892.38;7355356;19;19926;-64
2023/05/12 01:42:29;;;;;;;;;;;;;;;12.55;71.66;101902.00;7357991;19;19954;-63
2023/05/12 01:44:54;;;;;;;;;;;;;;;12.53;71.85;101898.53;7349115;19;20308;-64
2023/05/12 01:47:20;;;;;;;;;;;;;;;12.51;71.53;101895.06;7361914;19;20661;-63
2023/05/12 01:49:45;;;;;;;;;;;;;;;12.49;71.56;101904.69;7350782;19;19911;-64
2023/05/12 01:52:10;;;;;;;;;;;;;;;12.47;72.01;101909.09;7356834;19;19919;-63
2023/05/12 01:54:36;;;;;;;;;;;;;;;12.46;71.62;101907.34;7354300;19;19911;-64
2023/05/12 01:57:01;;;;;;;;;;;;;;;12.43;72.11;101903.03;7352866;19;20039;-63
2023/05/12 01:59:26;;;;;;;;;;;;;;;12.40;72.08;101910.03;7343690;19;19914;-64
2023/05/12 02:01:51;;;;;;;;;;;;;;;12.39;72.07;101913.56;7350023;19;19962;-64
2023/05/12 02:04:17;;;;;;;;;;;;;;;12.37;71.92;101915.34;7353676;19;20343;-64
2023/05/12 02:06:42;;;;;;;;;;;;;;;12.36;72.04;101914.44;7353074;19;19946;-63
2023/05/12 02:09:07;;;;;;;;;;;;;;;12.35;72.12;101923.19;7354359;19;19931;-63
2023/05/12 02:11:32;;;;;;;;;;;;;;;12.33;71.81;101931.97;7353342;19;20543;-63
2023/05/12 02:13:58;;;;;;;;;;;;;;;12.31;72.16;101925.84;7354565;19;20002;-63
2023/05/12 02:16:23;;;;;;;;;;;;;;;12.28;72.12;101929.38;7347742;19;19922;-64
2023/05/12 02:18:48;;;;;;;;;;;;;;;12.26;72.23;101935.50;7356128;19;19935;-63
2023/05/12 02:21:14;;;;;;;;;;;;;;;12.23;72.10;101941.66;7348148;19;20406;-64
2023/05/12 02:23:39;;;;;;;;;;;;;;;12.22;72.13;101939.91;7354107;19;19910;-64
2023/05/12 02:26:04;;;;;;;;;;;;;;;12.20;72.15;101946.91;7353019;19;19923;-63
2023/05/12 02:28:30;;;;;;;;;;;;;;;12.16;72.44;101946.06;7347665;19;20725;-64
2023/05/12 02:30:55;;;;;;;;;;;;;;;12.14;71.96;101942.59;7352118;19;20006;-63
2023/05/12 02:33:23;;;;;;;;;;;;;;;12.12;70.58;101944.38;7352699;19;19919;-64
2023/05/12 02:35:48;;;;;;;;;;;;;;;12.10;71.22;101945.25;7351441;19;20726;-64
2023/05/12 02:38:14;;;;;;;;;;;;;;;12.07;71.18;101947.91;7350821;19;19948;-64
2023/05/12 02:40:39;;;;;;;;;;;;;;;12.04;71.52;101951.41;7351619;19;19935;-63
2023/05/12 02:43:05;;;;;;;;;;;;;;;12.02;71.88;101957.56;7353584;19;20689;-64
2023/05/12 02:45:30;;;;;;;;;;;;;;;11.99;72.39;101953.22;7349407;19;19923;-64
2023/05/12 02:47:56;;;;;;;;;;;;;;;11.98;72.41;101951.47;7354924;19;19943;-63
2023/05/12 02:50:21;;;;;;;;;;;;;;;11.96;72.49;101963.69;7346006;19;19918;-64
2023/05/12 02:52:47;;;;;;;;;;;;;;;11.95;72.35;101965.44;7354279;19;20337;-64
2023/05/12 02:55:12;;;;;;;;;;;;;;;11.94;72.64;101962.84;7351404;19;19986;-64
2023/05/12 02:57:37;;;;;;;;;;;;;;;11.92;72.28;101964.63;7352315;19;19923;-64
2023/05/12 03:00:04;;;;;;;;;;;;;;;11.89;72.50;101968.13;7343946;19;19923;-64
2023/05/12 03:02:30;;;;;;;;;;;;;;;11.89;72.45;101972.50;7350463;19;20344;-64
2023/05/12 03:04:55;;;;;;;;;;;;;;;11.87;72.55;101974.25;7332071;19;19932;-64
2023/05/12 03:07:21;;;;;;;;;;;;;;;11.85;72.91;101965.53;7357603;19;19927;-65
2023/05/12 03:09:46;;;;;;;;;;;;;;;11.83;72.38;101970.78;7356800;19;19934;-64
2023/05/12 03:12:12;;;;;;;;;;;;;;;11.81;72.46;101969.91;7358512;19;19938;-63
2023/05/12 03:14:37;;;;;;;;;;;;;;;11.78;72.09;101969.91;7353590;19;19938;-64
2023/05/12 03:17:02;;;;;;;;;;;;;;;11.75;72.11;101963.84;7358726;19;19923;-63
2023/05/12 03:19:27;;;;;;;;;;;;;;;11.73;72.32;101965.59;7342244;19;19915;-64
2023/05/12 03:21:53;;;;;;;;;;;;;;;11.70;72.64;101969.97;7357403;19;19922;-64
2023/05/12 03:24:18;;;;;;;;;;;;;;;11.69;72.44;101969.97;7356117;19;19919;-65
2023/05/12 03:26:43;;;;;;;;;;;;;;;11.65;72.76;101963.91;7360622;19;19923;-63
2023/05/12 03:29:09;;;;;;;;;;;;;;;11.64;72.84;101964.78;7355818;19;19926;-64
2023/05/12 03:31:34;;;;;;;;;;;;;;;11.62;73.04;101971.78;7361093;19;19927;-63
2023/05/12 03:33:59;;;;;;;;;;;;;;;11.59;72.96;101974.41;7357193;19;19923;-64
2023/05/12 03:36:24;;;;;;;;;;;;;;;11.56;72.68;101969.22;7360168;19;19939;-64
2023/05/12 03:38:50;;;;;;;;;;;;;;;11.54;72.74;101967.47;7354690;19;19943;-63
2023/05/12 03:41:15;;;;;;;;;;;;;;;11.51;72.77;101965.75;7361395;19;20365;-63
2023/05/12 03:43:41;;;;;;;;;;;;;;;11.49;73.21;101977.97;7358408;19;19930;-64
2023/05/12 03:46:06;;;;;;;;;;;;;;;11.47;72.98;101979.72;7361302;19;19974;-64
2023/05/12 03:48:31;;;;;;;;;;;;;;;11.45;72.92;101976.22;7356596;19;19998;-63
2023/05/12 03:50:56;;;;;;;;;;;;;;;11.43;72.87;101983.22;7361221;19;19915;-64
2023/05/12 03:53:22;;;;;;;;;;;;;;;11.41;73.21;101983.25;7357078;19;20267;-63
2023/05/12 03:55:47;;;;;;;;;;;;;;;11.40;73.18;101983.25;7356021;19;20295;-65
2023/05/12 03:58:12;;;;;;;;;;;;;;;11.39;73.27;101989.34;7359761;19;19996;-65
2023/05/12 04:00:37;;;;;;;;;;;;;;;11.37;73.21;101988.50;7359658;19;19936;-66
2023/05/12 04:03:03;;;;;;;;;;;;;;;11.36;73.20;101989.38;7361638;19;19938;-66
2023/05/12 04:05:28;;;;;;;;;;;;;;;11.34;73.43;101988.50;7358140;19;19919;-65
2023/05/12 04:07:53;;;;;;;;;;;;;;;11.32;73.28;101993.75;7359312;19;19950;-66
2023/05/12 04:10:19;;;;;;;;;;;;;;;11.31;73.05;101999.88;7355236;19;19918;-65
2023/05/12 04:12:44;;;;;;;;;;;;;;;11.30;72.78;102003.34;7357681;19;19911;-66
2023/05/12 04:15:09;;;;;;;;;;;;;;;11.29;73.15;102001.59;7357242;19;19939;-66
2023/05/12 04:17:35;;;;;;;;;;;;;;;11.27;72.77;102012.97;7358936;19;19919;-66
2023/05/12 04:20:00;;;;;;;;;;;;;;;11.27;72.75;102018.19;7356894;19;19917;-66
2023/05/12 04:22:25;;;;;;;;;;;;;;;11.28;72.88;102014.69;7359194;19;19986;-65
2023/05/12 04:24:50;;;;;;;;;;;;;;;11.26;73.15;102019.06;7354023;19;19919;-66
2023/05/12 04:27:16;;;;;;;;;;;;;;;11.25;73.22;102014.69;7359785;19;19919;-65
2023/05/12 04:29:41;;;;;;;;;;;;;;;11.23;73.48;102014.72;7359120;19;20640;-66
2023/05/12 04:32:06;;;;;;;;;;;;;;;11.23;73.48;102011.22;7358889;19;20031;-65
2023/05/12 04:34:32;;;;;;;;;;;;;;;11.21;73.73;102018.22;7356177;19;19923;-63
2023/05/12 04:36:57;;;;;;;;;;;;;;;11.21;73.55;102026.06;7357990;19;20398;-62
2023/05/12 04:39:22;;;;;;;;;;;;;;;11.08;73.59;102007.81;7357614;19;19919;-66
2023/05/12 04:41:47;;;;;;;;;;;;;;;11.16;73.67;102036.53;7355017;19;19980;-64
2023/05/12 04:44:13;;;;;;;;;;;;;;;11.15;73.26;102025.22;7358484;19;19919;-65
2023/05/12 04:46:38;;;;;;;;;;;;;;;11.13;73.25;102034.78;7356333;19;19957;-65
2023/05/12 04:49:03;;;;;;;;;;;;;;;11.11;73.53;102028.72;7355087;19;19927;-65
2023/05/12 04:51:28;;;;;;;;;;;;;;;11.11;73.53;102039.16;7359827;19;20475;-66
2023/05/12 04:53:54;;;;;;;;;;;;;;;11.09;73.33;102040.91;7358844;19;19930;-65
2023/05/12 04:56:20;;;;;;;;;;;;;;;11.09;73.56;102040.03;7356063;19;19919;-65
2023/05/12 04:58:46;;;;;;;;;;;;;;;11.08;73.92;102036.56;7356763;19;19926;-65
2023/05/12 05:01:12;;;;;;;;;;;;;;;11.07;73.98;102037.44;7355317;19;19943;-66
2023/05/12 05:03:38;;;;;;;;;;;;;;;11.06;73.78;102040.06;7357363;19;20527;-66
2023/05/12 05:06:03;;;;;;;;;;;;;;;11.06;73.53;102050.53;7360176;19;19932;-66
2023/05/12 05:08:28;;;;;;;;;;;;;;;11.06;73.49;102055.75;7355921;19;19922;-65
2023/05/12 05:10:53;;;;;;;;;;;;;;;11.05;73.95;102052.28;7356540;19;19931;-66
2023/05/12 05:13:19;;;;;;;;;;;;;;;11.06;73.77;102051.38;7357148;19;19933;-65
2023/05/12 05:15:51;;;;;;;;;;;;;;;11.07;74.09;102057.47;7357074;19;19922;-66
2023/05/12 05:18:16;;;;;;;;;;;;;;;11.06;73.87;102064.47;7356512;19;19923;-66
2023/05/12 05:20:42;;;;;;;;;;;;;;;11.09;74.05;102066.19;7357369;19;19926;-66
2023/05/12 05:23:07;;;;;;;;;;;;;;;11.09;74.02;102076.63;7355187;19;19926;-65
2023/05/12 05:25:33;;;;;;;;;;;;;;;11.10;74.33;102081.88;7357662;19;19939;-65
2023/05/12 05:27:58;;;;;;;;;;;;;;;11.12;74.29;102081.88;7352337;19;19947;-65
2023/05/12 05:30:23;;;;;;;;;;;;;;;11.14;74.35;102091.44;7355435;19;19950;-65
2023/05/12 05:32:48;;;;;;;;;;;;;;;11.16;74.28;102087.09;7357111;19;19915;-65
2023/05/12 05:35:14;;;;;;;;;;;;;;;11.17;74.39;102091.44;7356508;19;19923;-65
2023/05/12 05:37:39;;;;;;;;;;;;;;;11.19;74.32;102099.25;7359211;19;19931;-65
2023/05/12 05:40:05;;;;;;;;;;;;;;;11.22;74.40;102103.63;7355062;19;19926;-66
2023/05/12 05:42:30;;;;;;;;;;;;;;;11.24;74.43;102107.97;7357542;19;19927;-65
2023/05/12 05:44:55;;;;;;;;;;;;;;;11.27;74.33;102112.34;7353654;19;20233;-65
2023/05/12 05:47:21;;;;;;;;;;;;;;;10.96;74.68;102060.13;7357865;19;20330;-65
2023/05/12 05:49:46;;;;;;;;;;;;;;;11.33;74.45;102125.38;7351013;19;19942;-65
2023/05/12 05:52:11;;;;;;;;;;;;;;;11.36;74.74;102128.88;7357093;19;19946;-65
2023/05/12 05:54:36;;;;;;;;;;;;;;;11.39;74.81;102133.19;7352263;19;19926;-65
2023/05/12 05:57:02;;;;;;;;;;;;;;;11.42;74.51;102139.31;7359247;19;20672;-65
2023/05/12 05:59:27;;;;;;;;;;;;;;;11.48;74.57;102142.78;7338805;19;20777;-65
2023/05/12 06:01:52;;;;;;;;;;;;;;;11.51;74.97;102148.88;7348306;19;19919;-65
2023/05/12 06:04:17;;;;;;;;;;;;;;;11.55;74.87;102150.59;7354208;19;19930;-66
2023/05/12 06:06:43;;;;;;;;;;;;;;;11.59;75.08;102147.09;7354405;19;20396;-65
2023/05/12 06:09:11;;;;;;;;;;;;;;;11.63;74.88;102148.81;7354335;19;19915;-66
2023/05/12 06:11:36;;;;;;;;;;;;;;;11.67;75.28;102158.41;7352265;19;20542;-66
2023/05/12 06:14:01;;;;;;;;;;;;;;;11.73;74.90;102164.50;7348133;19;19918;-65
2023/05/12 06:16:27;;;;;;;;;;;;;;;11.78;75.28;102162.72;7351841;19;19954;-65
2023/05/12 06:18:53;;;;;;;;;;;;;;;11.82;75.36;102164.50;7356429;19;19935;-65
2023/05/12 06:21:18;;;;;;;;;;;;;;;11.86;75.39;102161.84;7351816;19;20620;-65
2023/05/12 06:23:43;;;;;;;;;;;;;;;11.91;75.51;102164.41;7353326;19;19926;-65
2023/05/12 06:26:09;;;;;;;;;;;;;;;11.97;75.04;102158.31;7352956;19;19930;-65
2023/05/12 06:28:34;;;;;;;;;;;;;;;12.00;75.54;102164.38;7350927;19;19935;-65
2023/05/12 06:30:59;;;;;;;;;;;;;;;12.05;75.48;102173.09;7352731;19;20633;-65
2023/05/12 06:33:24;;;;;;;;;;;;;;;12.11;75.26;102177.41;7350630;19;19930;-65
2023/05/12 06:35:50;;;;;;;;;;;;;;;12.16;75.30;102184.34;7354832;19;19927;-65
2023/05/12 06:38:15;;;;;;;;;;;;;;;12.22;75.29;102180.00;7341046;19;20637;-66
2023/05/12 06:40:40;;;;;;;;;;;;;;;12.27;75.36;102175.59;7347126;19;20051;-65
2023/05/12 06:43:06;;;;;;;;;;;;;;;12.33;75.80;102183.41;7365367;19;19976;-63
2023/05/12 06:45:31;;;;;;;;;;;;;;;12.38;75.44;102176.41;7363240;19;19926;-65
2023/05/12 06:47:56;;;;;;;;;;;;;;;12.44;75.49;102182.47;7365702;19;19918;-65
2023/05/12 06:50:22;;;;;;;;;;;;;;;12.49;75.84;102185.06;7366861;19;19919;-66
2023/05/12 06:52:47;;;;;;;;;;;;;;;12.57;75.60;102192.84;7368411;19;19947;-66
2023/05/12 06:55:12;;;;;;;;;;;;;;;12.62;75.56;102191.06;7368119;19;19915;-66
2023/05/12 06:57:37;;;;;;;;;;;;;;;12.66;75.66;102188.41;7366846;19;19923;-65
2023/05/12 07:00:03;;;;;;;;;;;;;;;12.73;75.75;102192.75;7368518;19;19919;-66
2023/05/12 07:02:29;;;;;;;;;;;;;;;12.43;75.92;102133.56;7349084;19;19943;-66
2023/05/12 07:04:54;;;;;;;;;;;;;;;12.87;76.05;102191.75;7360538;19;19927;-66
2023/05/12 07:07:20;;;;;;;;;;;;;;;12.93;75.83;102196.97;7364980;19;19929;-65
2023/05/12 07:09:45;;;;;;;;;;;;;;;13.00;75.69;102201.25;7346190;19;19922;-66
2023/05/12 07:12:11;;;;;;;;;;;;;;;13.06;75.88;102192.47;7354831;19;20473;-66
2023/05/12 07:14:36;;;;;;;;;;;;;;;13.13;76.14;102199.41;7350293;19;19951;-66
2023/05/12 07:17:01;;;;;;;;;;;;;;;13.18;75.84;102198.47;7356933;19;20029;-66
2023/05/12 07:19:27;;;;;;;;;;;;;;;13.26;76.01;102200.16;7352544;19;19922;-66
2023/05/12 07:21:52;;;;;;;;;;;;;;;13.33;75.80;102200.13;7358235;19;20445;-66
2023/05/12 07:24:18;;;;;;;;;;;;;;;13.40;76.21;102203.53;7355593;19;19950;-65
2023/05/12 07:26:43;;;;;;;;;;;;;;;13.47;76.18;102199.94;7354809;19;20029;-66
2023/05/12 07:29:09;;;;;;;;;;;;;;;13.54;76.25;102203.41;7357028;19;20034;-65
2023/05/12 07:31:35;;;;;;;;;;;;;;;13.60;76.21;102205.94;7358178;19;20000;-66
2023/05/12 07:34:01;;;;;;;;;;;;;;;13.67;76.14;102202.34;7355789;19;19926;-66
2023/05/12 07:36:27;;;;;;;;;;;;;;;13.74;75.98;102204.91;7359442;19;19922;-65
2023/05/12 07:38:52;;;;;;;;;;;;;;;13.83;76.18;102203.03;7357243;19;20043;-66
2023/05/12 07:41:17;;;;;;;;;;;;;;;13.92;75.98;102205.56;7358210;19;20272;-66
2023/05/12 07:43:43;;;;;;;;;;;;;;;14.00;76.35;102208.97;7357377;19;19966;-65
2023/05/12 07:46:08;;;;;;;;;;;;;;;14.10;76.20;102218.47;7355344;19;19939;-66
2023/05/12 07:48:38;;;;;;;;;;;;;;;14.20;75.99;102225.34;7357360;19;20065;-66
2023/05/12 07:51:04;;;;;;;;;;;;;;;14.31;75.86;102221.69;7355195;19;20022;-67
2023/05/12 07:53:29;;;;;;;;;;;;;;;14.41;75.80;102223.31;7342675;19;19926;-70
2023/05/12 07:55:54;;;;;;;;;;;;;;;14.49;75.74;102232.81;7348466;19;19918;-66
2023/05/12 07:58:20;;;;;;;;;;;;;;;14.59;75.72;102236.19;7349307;19;20643;-66
2023/05/12 08:00:45;;;;;;;;;;;;;;;14.67;75.95;102231.69;7349153;19;20295;-66
2023/05/12 08:03:10;;;;;;;;;;;;;;;14.78;75.82;102235.03;7350769;19;19930;-66
2023/05/12 08:05:35;;;;;;;;;;;;;;;14.87;75.94;102243.66;7350567;19;19914;-66
2023/05/12 08:08:01;;;;;;;;;;;;;;;14.96;75.45;102243.53;7350719;19;20604;-66
2023/05/12 08:10:28;;;;;;;;;;;;;;;15.04;75.75;102253.00;7350466;19;19953;-67
2023/05/12 08:12:54;;;;;;;;;;;;;;;15.12;75.19;102250.25;7351293;19;19940;-66
2023/05/12 08:15:19;;;;;;;;;;;;;;;15.17;75.47;102252.81;7351968;19;20327;-66
2023/05/12 08:17:44;;;;;;;;;;;;;;;15.24;75.06;102257.06;7349925;19;19933;-65
2023/05/12 08:20:10;;;;;;;;;;;;;;;15.29;75.44;102252.59;7348191;19;20306;-66
2023/05/12 08:22:35;;;;;;;;;;;;;;;15.35;75.24;102251.63;7350743;19;19930;-65
2023/05/12 08:25:00;;;;;;;;;;;;;;;15.39;74.86;102261.19;7351350;19;19926;-66
2023/05/12 08:27:26;;;;;;;;;;;;;;;15.44;74.99;102262.00;7350121;19;19943;-65
2023/05/12 08:29:51;;;;;;;;;;;;;;;15.49;75.15;102265.41;7350798;19;19947;-66
2023/05/12 08:32:16;;;;;;;;;;;;;;;15.55;75.13;102265.28;7351039;19;20006;-65
2023/05/12 08:34:41;;;;;;;;;;;;;;;15.61;75.17;102269.56;7351076;19;19928;-65
2023/05/12 08:37:07;;;;;;;;;;;;;;;15.66;74.84;102263.38;7350041;19;19940;-65
2023/05/12 08:39:32;;;;;;;;;;;;;;;15.72;75.28;102268.53;7350767;19;20611;-66
2023/05/12 08:42:12;;;;;;;;;;;;;;;15.78;74.88;102268.41;7349973;19;20299;-66
2023/05/12 08:44:37;;;;;;;;;;;;;;;15.84;74.98;102267.41;7349035;19;19915;-66
2023/05/12 08:47:03;;;;;;;;;;;;;;;15.90;75.09;102279.59;7351415;19;19957;-66
2023/05/12 08:49:30;;;;;;;;;;;;;;;15.96;75.09;102282.09;7350061;19;19914;-66
2023/05/12 08:51:55;;;;;;;;;;;;;;;16.01;74.92;102282.88;7348406;19;20538;-66
2023/05/12 08:54:21;;;;;;;;;;;;;;;16.07;74.75;102285.41;7348450;19;19919;-66
2023/05/12 08:56:46;;;;;;;;;;;;;;;16.13;75.00;102284.41;7351142;19;19943;-66
2023/05/12 08:59:12;;;;;;;;;;;;;;;16.18;74.90;102283.41;7348012;19;19918;-66
2023/05/12 09:01:41;;;;;;;;;;;;;;;16.25;74.62;102284.16;7349463;19;20639;-66
2023/05/12 09:04:07;;;;;;;;;;;;;;;16.32;74.38;102291.91;7347180;19;19955;-66
2023/05/12 09:06:32;;;;;;;;;;;;;;;16.40;74.42;102294.38;7347078;19;19918;-66
2023/05/12 09:08:58;;;;;;;;;;;;;;;16.47;74.23;102301.22;7349135;19;19915;-65
2023/05/12 09:11:23;;;;;;;;;;;;;;;16.55;74.37;102301.09;7345467;19;19922;-66
2023/05/12 09:13:51;;;;;;;;;;;;;;;16.64;74.35;102302.66;7349220;19;19935;-66
2023/05/12 09:16:18;;;;;;;;;;;;;;;16.70;74.26;102303.38;7348405;19;20953;-62
2023/05/12 09:18:51;;;;;;;;;;;;;;;16.77;74.01;102305.00;7348571;19;19923;-66
2023/05/12 09:21:16;;;;;;;;;;;;;;;16.82;74.05;102305.75;7347367;19;19910;-66
2023/05/12 09:23:51;;;;;;;;;;;;;;;16.86;74.04;102307.44;7347739;19;19927;-66
2023/05/12 09:26:16;;;;;;;;;;;;;;;16.91;73.89;102312.59;7347287;19;19919;-66
2023/05/12 09:28:41;;;;;;;;;;;;;;;16.95;74.09;102313.41;7348242;19;19935;-66
2023/05/12 09:31:15;;;;;;;;;;;;;;;16.98;73.74;102313.31;7347173;19;19935;-66
2023/05/12 09:33:40;;;;;;;;;;;;;;;17.05;73.56;102315.78;7347392;19;19943;-65
2023/05/12 09:36:06;;;;;;;;;;;;;;;17.09;73.47;102311.31;7344667;19;19922;-66
2023/05/12 09:38:31;;;;;;;;;;;;;;;17.14;73.77;102312.06;7348565;19;19948;-66
2023/05/12 09:40:56;;;;;;;;;;;;;;;17.18;73.79;102318.13;7345426;19;19918;-66
2023/05/12 09:43:21;;;;;;;;;;;;;;;17.22;73.50;102328.56;7345934;19;19925;-66
2023/05/12 09:45:49;;;;;;;;;;;;;;;17.26;73.48;102335.50;7346566;19;19922;-66
2023/05/12 09:48:14;;;;;;;;;;;;;;;17.12;73.49;102295.38;7347210;19;20726;-66
2023/05/12 09:50:43;;;;;;;;;;;;;;;17.35;73.56;102335.28;7349474;19;19935;-66
2023/05/12 09:53:09;;;;;;;;;;;;;;;17.39;73.55;102330.81;7346823;19;20616;-66
2023/05/12 09:55:35;;;;;;;;;;;;;;;17.43;73.41;102323.66;7347482;19;19922;-66
2023/05/12 09:58:01;;;;;;;;;;;;;;;17.46;73.07;102331.50;7347727;19;19926;-67
2023/05/12 10:00:26;;;;;;;;;;;;;;;17.49;73.53;102327.03;7348575;19;20583;-66
2023/05/12 10:02:52;;;;;;;;;;;;;;;17.54;73.21;102329.56;7346878;19;19947;-66
2023/05/12 10:05:21;;;;;;;;;;;;;;;17.57;73.21;102329.47;7347347;19;19936;-66
2023/05/12 10:07:47;;;;;;;;;;;;;;;17.61;72.97;102325.84;7348246;19;19990;-65
2023/05/12 10:10:15;;;;;;;;;;;;;;;17.66;73.23;102326.59;7347370;19;19926;-66
2023/05/12 10:12:40;;;;;;;;;;;;;;;17.72;73.20;102334.34;7348255;19;20884;-66
2023/05/12 10:15:07;;;;;;;;;;;;;;;17.76;73.36;102330.75;7345227;19;19923;-65
2023/05/12 10:17:33;;;;;;;;;;;;;;;17.81;73.24;102330.63;7347024;19;19943;-66
2023/05/12 10:20:00;;;;;;;;;;;;;;;17.85;72.81;102332.28;7346965;19;19938;-65
2023/05/12 10:22:27;;;;;;;;;;;;;;;17.88;73.00;102335.69;7347804;19;19925;-66
2023/05/12 10:24:53;;;;;;;;;;;;;;;17.94;72.94;102339.06;7344002;19;20005;-65
2023/05/12 10:27:18;;;;;;;;;;;;;;;17.99;72.96;102327.47;7346498;19;19944;-66
2023/05/12 10:29:45;;;;;;;;;;;;;;;18.07;72.83;102329.91;7344348;19;19927;-65
2023/05/12 10:32:10;;;;;;;;;;;;;;;18.16;72.89;102324.38;7347524;19;19923;-66
2023/05/12 10:34:36;;;;;;;;;;;;;;;18.27;73.24;102327.56;7344397;19;20003;-66
2023/05/12 10:37:08;;;;;;;;;;;;;;;18.43;72.81;102322.69;7346116;19;19922;-66
2023/05/12 10:39:33;;;;;;;;;;;;;;;18.62;72.98;102323.00;7345335;19;20021;-66
2023/05/12 10:42:23;;;;;;;;;;;;;;;18.83;73.10;102319.72;7346667;19;19922;-66
2023/05/12 10:44:50;;;;;;;;;;;;;;;19.14;73.14;102326.69;7244771;19;2005545;-65
2023/05/12 10:47:15;;;;;;;;;;;;;;;19.47;72.85;102329.16;7345641;19;19928;-65
2023/05/12 10:49:41;;;;;;;;;;;;;;;19.78;72.58;102331.63;7344459;19;19919;-66
2023/05/12 10:52:06;;;;;;;;;;;;;;;20.05;71.86;102327.97;7346072;19;19923;-65
2023/05/12 10:54:43;;;;;;;;;;;;;;;20.28;71.65;102337.75;7345026;19;20504;-66
2023/05/12 10:57:19;;;;;;;;;;;;;;;20.47;71.14;102341.47;7346100;19;19922;-65
2023/05/12 10:59:51;;;;;;;;;;;;;;;20.64;71.03;102338.19;7345219;19;20002;-65
2023/05/12 11:02:18;;;;;;;;;;;;;;;20.84;70.79;102329.44;7346930;19;20023;-65
2023/05/12 11:04:51;;;;;;;;;;;;;;;21.06;70.52;102333.88;7345278;19;20350;-66
2023/05/12 11:07:27;;;;;;;;;;;;;;;21.27;70.13;102332.97;7347208;19;19933;-65
2023/05/12 11:09:53;;;;;;;;;;;;;;;21.46;70.05;102333.13;7344758;19;19919;-66
2023/05/12 11:12:18;;;;;;;;;;;;;;;21.63;69.82;102335.03;7346232;19;19919;-66
2023/05/12 11:14:44;;;;;;;;;;;;;;;21.79;70.03;102329.91;7345529;19;20401;-66
2023/05/12 11:17:10;;;;;;;;;;;;;;;21.96;69.58;102330.91;7346059;19;19957;-66
2023/05/12 11:19:35;;;;;;;;;;;;;;;;;;7344929;19;20768;-66
2023/05/12 11:22:08;;;;;;;;;;;;;;;22.58;69.37;102325.47;7342765;19;19946;-66
2023/05/12 11:24:33;;;;;;;;;;;;;;;22.99;68.79;102328.84;7343211;19;20014;-66
2023/05/12 11:26:59;;;;;;;;;;;;;;;23.38;68.64;102334.00;7343507;19;20271;-66
2023/05/12 11:29:24;;;;;;;;;;;;;;;23.77;68.48;102335.56;7349706;19;19947;-66
2023/05/12 11:31:50;;;;;;;;;;;;;;;24.17;67.99;102349.47;7350471;19;19922;-66
2023/05/12 11:34:19;;;;;;;;;;;;;;;24.54;66.94;102343.03;7350074;19;19919;-66
2023/05/12 11:36:45;;;;;;;;;;;;;;;24.87;67.68;102337.59;7351497;19;19926;-64
2023/05/12 11:39:17;;;;;;;;;;;;;;;25.16;66.54;102340.44;7351762;19;20727;-64
2023/05/12 11:41:43;;;;;;;;;;;;;;;25.43;65.82;102338.81;7348355;19;19922;-64
2023/05/12 11:44:22;;;;;;;;;;;;;;;25.67;65.12;102338.28;7352101;19;19923;-64
2023/05/12 11:46:57;;;;;;;;;;;;;;;25.90;64.88;102345.81;7350878;19;19926;-64
2023/05/12 11:49:23;;;;;;;;;;;;;;;26.12;64.76;102351.56;7352731;19;19930;-64
2023/05/12 11:51:50;;;;;;;;;;;;;;;26.30;64.28;102349.53;7351866;19;19907;-64
2023/05/12 11:54:15;;;;;;;;;;;;;;;26.44;63.38;102351.38;7347469;19;19918;-64
2023/05/12 11:56:46;;;;;;;;;;;;;;;26.50;62.77;102351.00;7350865;19;19911;-64
2023/05/12 11:59:11;;;;;;;;;;;;;;;26.48;62.93;102346.72;7350879;19;19932;-64
2023/05/12 12:01:43;;;;;;;;;;;;;;;26.42;62.69;102345.28;7350725;19;19923;-64
2023/05/12 12:04:08;;;;;;;;;;;;;;;26.33;62.84;102345.81;7346950;19;19991;-64
2023/05/12 12:06:41;;;;;;;;;;;;;;;26.25;63.14;102361.50;7352414;19;19923;-66
2023/05/12 12:09:07;;;;;;;;;;;;;;;26.16;62.72;102354.06;7350522;19;19934;-66
2023/05/12 12:11:33;;;;;;;;;;;;;;;26.09;63.70;102354.44;7350933;19;20601;-66
2023/05/12 12:13:59;;;;;;;;;;;;;;;26.06;63.50;102360.00;7349922;19;20336;-66
2023/05/12 12:16:28;;;;;;;;;;;;;;;26.06;63.86;102360.00;7348406;19;20907;-66
2023/05/12 12:18:54;;;;;;;;;;;;;;;26.12;64.14;102375.66;7352440;19;20016;-66
2023/05/12 12:21:23;;;;;;;;;;;;;;;26.20;63.96;102364.47;7349597;19;19922;-66
2023/05/12 12:23:48;;;;;;;;;;;;;;;26.32;64.09;102349.47;7350351;19;19932;-65
2023/05/12 12:26:15;;;;;;;;;;;;;;;26.53;64.08;102350.81;7349853;19;19919;-65
2023/05/12 12:28:46;;;;;;;;;;;;;;;26.83;64.41;102358.69;7349185;19;19930;-65
2023/05/12 12:31:14;;;;;;;;;;;;;;;27.21;64.46;102355.31;7347169;19;19930;-65